createdAt,value
2022-09-06T00:05:21.679Z,20.19
2022-09-06T00:08:11.968Z,20.06
2022-09-06T00:13:53.996Z,20.17
2022-09-06T00:19:29.305Z,20.13
2022-09-06T00:22:17.790Z,20.11
2022-09-06T00:25:07.088Z,20.18
2022-09-06T00:27:59.566Z,20.18
2022-09-06T00:33:37.789Z,20.20
2022-09-06T00:39:13.753Z,20.20
2022-09-06T00:42:02.222Z,20.16
2022-09-06T00:44:50.931Z,20.28
2022-09-06T00:47:41.326Z,20.27
2022-09-06T00:50:30.763Z,20.21
2022-09-06T00:53:21.747Z,20.17
2022-09-06T00:58:58.381Z,20.24
2022-09-06T01:01:46.918Z,20.24
2022-09-06T01:04:35.745Z,20.22
2022-09-06T01:10:45.475Z,20.38
2022-09-06T01:16:26.630Z,20.38
2022-09-06T01:25:18.898Z,20.45
2022-09-06T01:28:27.625Z,20.44
2022-09-06T01:34:19.964Z,20.53
2022-09-06T01:39:56.037Z,20.52
2022-09-06T01:45:32.927Z,20.59
2022-09-06T01:51:15.074Z,20.63
2022-09-06T01:56:56.150Z,20.74
2022-09-06T01:59:52.104Z,20.52
2022-09-06T02:05:33.814Z,20.34
2022-09-06T02:11:06.294Z,20.37
2022-09-06T02:16:39.192Z,20.36
2022-09-06T02:22:13.815Z,20.37
2022-09-06T02:27:51.118Z,20.47
2022-09-06T02:33:23.702Z,20.27
2022-09-06T02:36:12.628Z,20.28
2022-09-06T02:39:02.873Z,20.25
2022-09-06T02:44:38.310Z,20.25
2022-09-06T02:47:26.804Z,20.26
2022-09-06T02:53:05.704Z,20.39
2022-09-06T02:58:35.525Z,20.39
2022-09-06T03:04:10.977Z,20.46
2022-09-06T03:06:59.488Z,20.46
2022-09-06T03:12:27.116Z,20.49
2022-09-06T03:15:17.584Z,20.46
2022-09-06T03:18:06.828Z,20.52
2022-09-06T03:20:55.847Z,20.48
2022-09-06T03:23:48.278Z,20.41
2022-09-06T03:26:36.437Z,20.39
2022-09-06T03:29:25.808Z,20.41
2022-09-06T03:32:14.138Z,20.48
2022-09-06T03:35:02.856Z,20.46
2022-09-06T03:37:52.675Z,20.39
2022-09-06T03:40:41.788Z,20.35
2022-09-06T03:43:31.681Z,20.33
2022-09-06T03:46:20.025Z,20.32
2022-09-06T03:49:10.280Z,20.30
2022-09-06T04:07:55.339Z,20.13
2022-09-06T04:10:45.423Z,19.97
2022-09-06T04:16:14.668Z,19.95
2022-09-06T04:21:49.051Z,19.98
2022-09-06T04:24:37.338Z,19.92
2022-09-06T04:30:12.472Z,20.01
2022-09-06T04:35:55.599Z,20.03
2022-09-06T04:38:45.071Z,20.01
2022-09-06T04:44:17.815Z,20.04
2022-09-06T04:50:00.042Z,20.01
2022-09-06T04:52:48.532Z,19.95
2022-09-06T04:58:34.958Z,19.90
2022-09-06T05:04:20.864Z,19.80
2022-09-06T05:10:03.707Z,19.70
2022-09-06T05:15:34.158Z,19.70
2022-09-06T05:21:30.283Z,19.72
2022-09-06T05:27:23.285Z,19.69
2022-09-06T05:32:56.265Z,19.78
2022-09-06T05:35:44.471Z,19.73
2022-09-06T05:46:47.633Z,20.06
2022-09-06T05:52:26.160Z,20.14
2022-09-06T05:58:03.070Z,20.37
2022-09-06T06:04:09.640Z,20.81
2022-09-06T06:06:57.916Z,20.96
2022-09-06T06:12:35.173Z,21.11
2022-09-06T06:18:08.555Z,21.08
2022-09-06T06:23:58.045Z,21.15
2022-09-06T06:29:35.321Z,21.30
2022-09-06T06:32:24.434Z,21.34
2022-09-06T06:38:01.611Z,21.53
2022-09-06T06:43:32.181Z,21.72
2022-09-06T06:49:02.929Z,22.12
2022-09-06T06:54:37.523Z,22.29
2022-09-06T07:00:10.860Z,22.45
2022-09-06T07:11:27.530Z,22.74
2022-09-06T07:14:15.995Z,22.79
2022-09-06T07:17:07.439Z,22.90
2022-09-06T07:25:32.432Z,22.92
2022-09-06T07:28:21.040Z,22.68
2022-09-06T07:34:01.449Z,22.62
2022-09-06T07:36:49.975Z,22.66
2022-09-06T07:42:19.232Z,22.59
2022-09-06T07:53:31.460Z,22.45
2022-09-06T07:56:22.471Z,22.28
2022-09-06T07:59:13.222Z,22.13
2022-09-06T08:04:42.424Z,21.74
2022-09-06T08:10:20.455Z,21.16
2022-09-06T08:15:52.719Z,20.63
2022-09-06T08:18:43.191Z,20.48
2022-09-06T08:21:34.785Z,20.55
2022-09-06T08:27:11.125Z,20.56
2022-09-06T08:29:59.404Z,20.58
2022-09-06T08:32:48.950Z,20.53
2022-09-06T08:38:38.375Z,20.75
2022-09-06T08:41:28.630Z,20.63
2022-09-06T08:47:13.443Z,20.84
2022-09-06T08:50:07.384Z,20.82
2022-09-06T08:55:53.125Z,21.14
2022-09-06T09:01:33.944Z,21.41
2022-09-06T09:07:06.880Z,21.69
2022-09-06T09:12:47.298Z,21.66
2022-09-06T09:18:27.951Z,21.78
2022-09-06T09:26:51.246Z,22.16
2022-09-06T09:35:41.385Z,22.75
2022-09-06T09:41:29.581Z,23.43
2022-09-06T09:44:21.629Z,23.49
2022-09-06T09:50:24.762Z,23.81
2022-09-06T09:56:02.007Z,24.17
2022-09-06T09:58:50.453Z,24.19
2022-09-06T10:04:45.481Z,24.31
2022-09-06T10:07:23.723Z,24.27
2022-09-06T10:13:11.580Z,24.42
2022-09-06T10:16:04.506Z,24.68
2022-09-06T10:21:41.011Z,25.61
2022-09-06T10:27:18.210Z,26.20
2022-09-06T10:32:54.988Z,26.26
2022-09-06T10:38:42.607Z,26.24
2022-09-06T10:47:42.330Z,26.48
2022-09-06T10:53:36.058Z,27.05
2022-09-06T11:10:40.218Z,26.89
2022-09-06T11:16:29.279Z,26.46
2022-09-06T11:23:13.076Z,26.16
2022-09-06T11:26:16.366Z,26.16
2022-09-06T11:37:48.420Z,25.60
2022-09-06T11:40:41.168Z,25.23
2022-09-06T11:43:47.048Z,25.10
2022-09-06T11:47:01.889Z,24.80
2022-09-06T11:49:53.649Z,24.58
2022-09-06T11:56:13.372Z,24.05
2022-09-06T12:02:08.397Z,23.74
2022-09-06T12:08:43.987Z,23.47
2022-09-06T12:14:29.656Z,23.22
2022-09-06T12:17:23.009Z,23.07
2022-09-06T12:22:57.541Z,22.06
2022-09-06T12:28:52.100Z,20.97
2022-09-06T12:31:41.807Z,20.69
2022-09-06T12:37:17.350Z,20.05
2022-09-06T12:40:07.831Z,20.18
2022-09-06T12:45:45.116Z,19.30
2022-09-06T12:48:35.861Z,19.42
2022-09-06T12:54:10.221Z,19.56
2022-09-06T12:59:58.825Z,19.74
2022-09-06T13:05:34.161Z,20.17
2022-09-06T13:11:18.912Z,21.14
2022-09-06T13:14:14.486Z,21.53
2022-09-06T13:19:53.558Z,22.31
2022-09-06T13:22:47.438Z,22.40
2022-09-06T13:25:38.497Z,22.74
2022-09-06T13:28:28.943Z,22.89
2022-09-06T13:34:04.179Z,23.31
2022-09-06T13:39:41.228Z,23.66
2022-09-06T13:42:33.034Z,23.72
2022-09-06T13:48:28.429Z,23.97
2022-09-06T13:51:00.925Z,23.96
2022-09-06T13:53:52.049Z,24.01
2022-09-06T13:56:41.575Z,23.94
2022-09-06T14:05:12.708Z,23.93
2022-09-06T14:08:02.535Z,23.87
2022-09-06T14:13:32.683Z,23.44
2022-09-06T14:16:20.895Z,23.29
2022-09-06T14:21:56.326Z,23.27
2022-09-06T14:24:45.976Z,23.23
2022-09-06T14:30:21.493Z,23.18
2022-09-06T14:36:07.272Z,23.32
2022-09-06T14:44:33.200Z,23.25
2022-09-06T14:50:10.619Z,22.96
2022-09-06T14:52:59.305Z,22.85
2022-09-06T14:55:48.619Z,23.02
2022-09-06T14:58:38.128Z,23.24
2022-09-06T15:04:15.411Z,24.12
2022-09-06T15:09:51.737Z,24.37
2022-09-06T15:12:40.804Z,24.42
2022-09-06T15:18:16.616Z,24.32
2022-09-06T15:24:01.834Z,24.46
2022-09-06T15:26:56.224Z,24.48
2022-09-06T15:32:32.266Z,24.28
2022-09-06T15:35:20.752Z,24.28
2022-09-06T15:40:52.269Z,23.92
2022-09-06T15:43:45.122Z,23.92
2022-09-06T15:49:32.184Z,23.88
2022-09-06T15:52:22.502Z,23.93
2022-09-06T15:55:28.954Z,23.84
2022-09-06T15:58:17.774Z,23.70
2022-09-06T16:01:08.842Z,23.61
2022-09-06T16:06:42.802Z,23.47
2022-09-06T16:09:32.008Z,23.38
2022-09-06T16:15:14.725Z,23.36
2022-09-06T16:20:44.659Z,23.19
2022-09-06T16:26:12.348Z,23.09
2022-09-06T16:29:01.761Z,22.95
2022-09-06T16:31:52.214Z,22.92
2022-09-06T16:37:31.031Z,23.01
2022-09-06T16:43:00.974Z,22.95
2022-09-06T16:48:45.755Z,22.72
2022-09-06T16:54:15.807Z,22.66
2022-09-06T16:57:05.283Z,22.65
2022-09-06T16:59:55.707Z,22.58
2022-09-06T17:05:45.911Z,22.47
2022-09-06T17:11:21.424Z,22.46
2022-09-06T17:17:07.591Z,22.49
2022-09-06T17:19:56.127Z,22.46
2022-09-06T17:25:32.826Z,22.43
2022-09-06T17:31:03.628Z,22.38
2022-09-06T17:33:54.792Z,22.25
2022-09-06T17:36:44.053Z,22.14
2022-09-06T17:39:33.627Z,22.07
2022-09-06T17:45:12.491Z,21.90
2022-09-06T17:50:50.426Z,21.86
2022-09-06T17:53:41.148Z,21.74
2022-09-06T17:59:17.170Z,21.51
2022-09-06T18:04:52.097Z,21.37
2022-09-06T18:07:40.537Z,21.38
2022-09-06T18:13:18.765Z,21.23
2022-09-06T18:16:08.059Z,21.06
2022-09-06T18:24:19.899Z,20.91
2022-09-06T18:27:08.659Z,20.79
2022-09-06T18:29:57.631Z,20.68
2022-09-06T18:35:33.871Z,20.78
2022-09-06T18:41:10.390Z,20.59
2022-09-06T18:46:45.119Z,20.67
2022-09-06T18:49:34.323Z,20.60
2022-09-06T18:55:11.436Z,20.82
2022-09-06T19:00:42.387Z,20.84
2022-09-06T19:03:30.933Z,20.65
2022-09-06T19:09:23.073Z,20.65
2022-09-06T19:14:59.477Z,20.65
2022-09-06T19:20:46.588Z,20.62
2022-09-06T19:23:37.743Z,20.63
2022-09-06T19:29:26.384Z,20.48
2022-09-06T19:34:57.718Z,20.51
2022-09-06T19:40:33.720Z,20.63
2022-09-06T19:43:22.842Z,20.41
2022-09-06T19:48:57.266Z,20.35
2022-09-06T19:51:46.785Z,20.15
2022-09-06T19:54:35.551Z,20.08
2022-09-06T19:57:23.860Z,20.07
2022-09-06T20:02:59.898Z,20.17
2022-09-06T20:08:33.763Z,20.07
2022-09-06T20:11:25.373Z,20.01
2022-09-06T20:17:22.689Z,20.03
2022-09-06T20:22:37.762Z,19.97
2022-09-06T20:28:08.352Z,20.07
2022-09-06T20:31:00.664Z,19.96
2022-09-06T20:36:30.372Z,20.00
2022-09-06T20:42:04.347Z,20.10
2022-09-06T20:47:31.359Z,19.92
2022-09-06T20:53:09.654Z,19.96
2022-09-06T21:01:28.638Z,20.02
2022-09-06T21:07:06.104Z,19.97
2022-09-06T21:12:42.464Z,20.06
2022-09-06T21:18:23.333Z,20.00
2022-09-06T21:24:06.565Z,19.90
2022-09-06T21:29:35.466Z,19.66
2022-09-06T21:35:07.217Z,19.74
2022-09-06T21:40:44.081Z,19.95
2022-09-06T21:46:19.554Z,20.11
2022-09-06T21:49:09.618Z,20.06
2022-09-06T21:54:43.721Z,20.36
2022-09-06T21:57:32.430Z,20.23
2022-09-06T22:03:09.762Z,20.22
2022-09-06T22:06:02.718Z,20.20
2022-09-06T22:11:41.484Z,20.19
2022-09-06T22:20:08.628Z,20.04
2022-09-06T22:22:56.871Z,20.18
2022-09-06T22:25:46.024Z,20.01
2022-09-06T22:28:36.308Z,20.09
2022-09-06T22:34:13.350Z,20.10
2022-09-06T22:37:02.349Z,19.98
2022-09-06T22:42:32.909Z,19.78
2022-09-06T22:45:22.840Z,19.69
2022-09-06T22:50:58.578Z,19.71
2022-09-06T22:53:48.609Z,19.69
2022-09-06T22:59:24.283Z,19.71
2022-09-06T23:05:04.194Z,19.67
2022-09-06T23:07:52.945Z,19.60
2022-09-06T23:10:43.314Z,19.58
2022-09-06T23:16:28.818Z,19.51
2022-09-06T23:22:05.400Z,19.58
2022-09-06T23:24:54.126Z,19.49
2022-09-06T23:30:24.201Z,19.54
2022-09-06T23:35:55.418Z,19.45
2022-09-06T23:41:34.262Z,19.53
2022-09-06T23:44:22.885Z,19.49
2022-09-06T23:47:11.921Z,19.48
2022-09-06T23:52:45.719Z,19.50
2022-09-06T23:58:30.264Z,19.50
